Time;durP1;ratioP1;P1;durP2;ratioP2;P2;SDS_P1;SDS_P2;PMS_P1;PMS_P2;Temp;Humidity;BMP_temperature;BMP_pressure;BME280_temperature;BME280_humidity;BME280_pressure;Samples;Min_cycle;Max_cycle;Signal;HPM_P1;HPM_P2
2023/03/31 00:01:24;;;;;;;;;;;;;;;10.16;100.00;97462.59;5082584;28;19934;-73
2023/03/31 00:04:00;;;;;;;;;;;;;;;9.63;100.00;97455.97;5066191;28;20124;-72
2023/03/31 00:06:27;;;;;;;;;;;;;;;9.28;100.00;97454.13;5055216;28;20002;-73
2023/03/31 00:08:53;;;;;;;;;;;;;;;9.27;100.00;97443.72;5050530;28;19924;-72
2023/03/31 00:11:20;;;;;;;;;;;;;;;9.23;100.00;97448.78;5060044;28;19924;-73
2023/03/31 00:13:46;;;;;;;;;;;;;;;9.21;100.00;97438.41;5062436;28;19968;-71
2023/03/31 00:16:13;;;;;;;;;;;;;;;9.47;100.00;97435.75;5051729;28;20012;-73
2023/03/31 00:18:46;;;;;;;;;;;;;;;9.22;100.00;97433.88;5054807;28;19950;-72
2023/03/31 00:21:23;;;;;;;;;;;;;;;9.39;100.00;97437.06;5074670;28;19938;-72
2023/03/31 00:23:49;;;;;;;;;;;;;;;9.44;100.00;97442.38;5060169;28;19928;-71
2023/03/31 00:26:16;;;;;;;;;;;;;;;9.48;100.00;97442.66;5080223;28;19935;-72
2023/03/31 00:28:42;;;;;;;;;;;;;;;9.28;100.00;97451.47;5069424;28;19924;-71
2023/03/31 00:31:08;;;;;;;;;;;;;;;9.40;100.00;97446.66;5070315;28;19928;-72
2023/03/31 00:33:35;;;;;;;;;;;;;;;9.45;100.00;97438.66;5066026;28;20516;-72
2023/03/31 00:36:04;;;;;;;;;;;;;;;9.43;100.00;97430.16;5068346;28;19932;-72
2023/03/31 00:38:32;;;;;;;;;;;;;;;9.39;100.00;97434.41;5069768;28;19943;-71
2023/03/31 00:40:59;;;;;;;;;;;;;;;9.28;100.00;97427.47;5078787;28;19928;-71
2023/03/31 00:43:30;;;;;;;;;;;;;;;9.17;100.00;97418.66;5073249;28;19924;-72
2023/03/31 00:46:01;;;;;;;;;;;;;;;8.93;100.00;97422.91;5072241;28;19928;-71
2023/03/31 00:48:28;;;;;;;;;;;;;;;8.86;100.00;97416.22;5071651;28;19928;-72
2023/03/31 00:50:55;;;;;;;;;;;;;;;8.85;100.00;97418.09;5076130;28;20340;-72
2023/03/31 00:53:25;;;;;;;;;;;;;;;8.85;100.00;97406.66;5075634;28;19932;-72
2023/03/31 00:55:54;;;;;;;;;;;;;;;8.91;100.00;97410.94;5077959;28;19924;-72
2023/03/31 00:58:21;;;;;;;;;;;;;;;8.96;100.00;97402.94;5070081;28;19925;-72
2023/03/31 01:00:50;;;;;;;;;;;;;;;8.94;100.00;97400.56;5068213;28;20478;-73
2023/03/31 01:03:17;;;;;;;;;;;;;;;9.10;100.00;97396.00;5073220;28;19931;-72
2023/03/31 01:05:46;;;;;;;;;;;;;;;9.20;100.00;97393.34;5072665;28;19928;-71
2023/03/31 01:08:13;;;;;;;;;;;;;;;9.21;100.00;97400.28;5072775;28;19932;-72
2023/03/31 01:10:41;;;;;;;;;;;;;;;8.96;100.00;97387.75;5074244;28;20016;-72
2023/03/31 01:13:10;;;;;;;;;;;;;;;8.77;100.00;97373.34;5074802;28;19924;-72
2023/03/31 01:15:36;;;;;;;;;;;;;;;8.65;100.00;97375.47;5059450;28;20019;-72
2023/03/31 01:18:03;;;;;;;;;;;;;;;8.51;100.00;97377.03;5047313;28;19928;-72
2023/03/31 01:20:36;;;;;;;;;;;;;;;8.41;100.00;97375.16;5055469;28;19931;-72
2023/03/31 01:23:13;;;;;;;;;;;;;;;8.39;100.00;97366.59;5060307;28;19932;-72
2023/03/31 01:25:55;;;;;;;;;;;;;;;8.56;100.00;97367.19;5057510;28;19928;-72
2023/03/31 01:28:33;;;;;;;;;;;;;;;8.65;100.00;97362.97;5053323;28;19924;-72
2023/03/31 01:31:18;;;;;;;;;;;;;;;8.90;100.00;97372.03;5065353;28;19928;-71
2023/03/31 01:34:14;;;;;;;;;;;;;;;8.52;100.00;97366.13;5064425;28;19928;-71
2023/03/31 01:36:59;;;;;;;;;;;;;;;8.25;100.00;97357.50;5072493;28;19928;-71
2023/03/31 01:39:33;;;;;;;;;;;;;;;8.05;100.00;97344.13;5046996;28;19939;-71
2023/03/31 01:42:05;;;;;;;;;;;;;;;8.05;100.00;97344.13;5077278;28;19938;-72
2023/03/31 01:44:36;;;;;;;;;;;;;;;7.90;100.00;97341.41;5071561;28;19950;-72
2023/03/31 01:47:07;;;;;;;;;;;;;;;7.85;100.00;97328.91;5070042;28;19954;-72
2023/03/31 01:49:39;;;;;;;;;;;;;;;7.80;100.00;97330.75;5074314;28;20595;-73
2023/03/31 01:52:08;;;;;;;;;;;;;;;8.22;100.00;97334.09;5066760;28;19934;-73
2023/03/31 01:54:38;;;;;;;;;;;;;;;8.23;100.00;97341.00;5081927;28;19944;-72
2023/03/31 01:57:10;;;;;;;;;;;;;;;8.13;100.00;97327.69;5066609;28;19924;-72
2023/03/31 01:59:39;;;;;;;;;;;;;;;8.22;100.00;97322.66;5057817;28;19931;-72
2023/03/31 02:02:08;;;;;;;;;;;;;;;8.11;100.00;97311.97;5072643;28;19935;-72
2023/03/31 02:04:38;;;;;;;;;;;;;;;8.05;100.00;97323.66;5076050;28;20398;-72
2023/03/31 02:07:07;;;;;;;;;;;;;;;8.21;100.00;97321.84;5074690;28;19928;-73
2023/03/31 02:09:37;;;;;;;;;;;;;;;8.28;100.00;97310.97;5075441;28;20023;-72
2023/03/31 02:12:05;;;;;;;;;;;;;;;8.17;100.00;97304.03;5071086;28;19934;-73
2023/03/31 02:14:35;;;;;;;;;;;;;;;8.39;100.00;97307.28;5075531;28;19985;-72
2023/03/31 02:17:02;;;;;;;;;;;;;;;8.83;100.00;97315.59;5075116;28;19928;-72
2023/03/31 02:19:31;;;;;;;;;;;;;;;8.81;100.00;97301.75;5065121;28;19930;-72
2023/03/31 02:21:57;;;;;;;;;;;;;;;8.73;100.00;97292.41;5075817;28;19931;-73
2023/03/31 02:24:27;;;;;;;;;;;;;;;8.60;100.00;97295.63;5074139;28;19927;-72
2023/03/31 02:26:55;;;;;;;;;;;;;;;8.54;100.00;97280.72;5075189;28;20401;-72
2023/03/31 02:29:21;;;;;;;;;;;;;;;8.83;100.00;97281.78;5061680;28;20022;-72
2023/03/31 02:31:52;;;;;;;;;;;;;;;9.06;100.00;97296.41;5078075;28;19951;-73
2023/03/31 02:34:19;;;;;;;;;;;;;;;9.17;100.00;97287.34;5065442;28;19924;-72
2023/03/31 02:36:46;;;;;;;;;;;;;;;9.31;100.00;97282.25;5060805;28;19959;-73
2023/03/31 02:39:14;;;;;;;;;;;;;;;9.22;100.00;97282.03;5054665;28;20011;-72
2023/03/31 02:41:41;;;;;;;;;;;;;;;8.77;100.00;97271.38;5054167;28;20218;-71
2023/03/31 02:47:06;;;;;;;;;;;;;;;8.78;100.00;97270.34;5124251;27;19981;-66
2023/03/31 02:49:33;;;;;;;;;;;;;;;8.33;100.00;97266.56;5115989;28;19951;-66
2023/03/31 02:52:15;;;;;;;;;;;;;;;8.18;100.00;97255.06;5116564;28;19959;-65
2023/03/31 02:55:05;;;;;;;;;;;;;;;8.51;100.00;97251.97;5116380;28;19924;-66
2023/03/31 02:57:43;;;;;;;;;;;;;;;8.44;100.00;97249.56;5109076;28;19924;-66
2023/03/31 03:00:16;;;;;;;;;;;;;;;8.90;100.00;97249.56;5125434;28;19955;-65
2023/03/31 03:02:50;;;;;;;;;;;;;;;8.56;100.00;97244.78;5122499;27;19971;-65
2023/03/31 03:05:21;;;;;;;;;;;;;;;8.96;100.00;97248.47;5119710;28;19987;-65
2023/03/31 03:07:53;;;;;;;;;;;;;;;9.03;100.00;97249.81;5117735;28;19989;-66
2023/03/31 03:10:26;;;;;;;;;;;;;;;9.19;100.00;97247.94;5115876;28;19924;-66
2023/03/31 03:12:57;;;;;;;;;;;;;;;9.14;100.00;97247.91;5118197;28;19967;-66
2023/03/31 03:15:25;;;;;;;;;;;;;;;8.97;100.00;97244.75;5119287;28;19924;-66
2023/03/31 03:17:53;;;;;;;;;;;;;;;8.76;100.00;97245.84;5117319;28;19928;-66
2023/03/31 03:20:20;;;;;;;;;;;;;;;8.74;100.00;97238.13;5115992;28;19956;-66
2023/03/31 03:22:46;;;;;;;;;;;;;;;8.73;100.00;97230.41;5117328;28;20317;-66
2023/03/31 03:25:15;;;;;;;;;;;;;;;8.84;100.00;97224.00;5119538;28;19963;-66
2023/03/31 03:27:42;;;;;;;;;;;;;;;8.70;100.00;97221.06;5118720;28;19998;-66
2023/03/31 03:30:10;;;;;;;;;;;;;;;8.61;100.00;97222.69;5124560;28;19946;-66
2023/03/31 03:32:37;;;;;;;;;;;;;;;8.72;100.00;97221.63;5123063;27;19924;-66
2023/03/31 03:35:05;;;;;;;;;;;;;;;8.55;100.00;97200.59;5119315;28;20352;-66
2023/03/31 03:37:32;;;;;;;;;;;;;;;8.43;100.00;97199.25;5119497;28;19920;-66
2023/03/31 03:39:58;;;;;;;;;;;;;;;8.33;100.00;97194.75;5116151;28;19920;-66
2023/03/31 03:42:24;;;;;;;;;;;;;;;8.35;100.00;97184.66;5115819;28;19930;-66
2023/03/31 03:44:51;;;;;;;;;;;;;;;8.33;100.00;97186.75;5119937;28;19959;-66
2023/03/31 03:47:17;;;;;;;;;;;;;;;8.34;100.00;97185.72;5139738;28;19959;-66
2023/03/31 03:49:44;;;;;;;;;;;;;;;8.80;100.00;97185.66;5138254;28;19920;-66
2023/03/31 03:52:11;;;;;;;;;;;;;;;8.52;100.00;97179.84;5136007;28;19926;-66
2023/03/31 03:54:38;;;;;;;;;;;;;;;8.86;100.00;97177.41;5136167;28;19924;-66
2023/03/31 03:57:05;;;;;;;;;;;;;;;8.95;100.00;97165.13;5133140;28;19949;-66
2023/03/31 03:59:31;;;;;;;;;;;;;;;9.07;100.00;97164.81;5125717;28;19926;-66
2023/03/31 04:01:58;;;;;;;;;;;;;;;8.99;100.00;97160.06;5138409;27;19996;-66
2023/03/31 04:04:24;;;;;;;;;;;;;;;9.02;100.00;97151.53;5121877;28;19960;-66
2023/03/31 04:06:50;;;;;;;;;;;;;;;8.86;100.00;97152.63;5123595;28;19924;-66
2023/03/31 04:09:18;;;;;;;;;;;;;;;8.84;100.00;97157.44;5125153;28;20018;-66
2023/03/31 04:11:44;;;;;;;;;;;;;;;9.00;100.00;97154.47;5123713;28;19953;-66
2023/03/31 04:14:11;;;;;;;;;;;;;;;9.01;100.00;97150.72;5121531;28;20422;-66
2023/03/31 04:16:39;;;;;;;;;;;;;;;9.11;100.00;97160.56;5103842;28;19946;-67
2023/03/31 04:19:05;;;;;;;;;;;;;;;8.88;100.00;97169.94;5124752;28;20348;-66
2023/03/31 04:21:33;;;;;;;;;;;;;;;8.93;100.00;97166.47;5124724;28;19996;-65
2023/03/31 04:24:03;;;;;;;;;;;;;;;9.05;100.00;97170.44;5121052;28;19931;-66
2023/03/31 04:26:37;;;;;;;;;;;;;;;8.32;100.00;97145.28;5120940;28;20450;-66
2023/03/31 04:29:04;;;;;;;;;;;;;;;8.60;100.00;97154.56;5121452;28;19924;-66
2023/03/31 04:31:31;;;;;;;;;;;;;;;8.73;100.00;97145.22;5137042;27;19982;-66
2023/03/31 04:34:01;;;;;;;;;;;;;;;8.23;100.00;97138.88;5103335;28;19950;-66
2023/03/31 04:36:27;;;;;;;;;;;;;;;8.35;100.00;97139.44;5121171;28;20007;-66
2023/03/31 04:38:54;;;;;;;;;;;;;;;8.00;100.00;97129.53;5123747;28;19939;-66
2023/03/31 04:41:21;;;;;;;;;;;;;;;7.90;100.00;97120.75;5124599;28;19924;-66
2023/03/31 04:43:49;;;;;;;;;;;;;;;7.83;100.00;97120.25;5104590;28;19931;-66
2023/03/31 04:46:15;;;;;;;;;;;;;;;7.77;100.00;97119.41;5120975;28;19924;-66
2023/03/31 04:48:42;;;;;;;;;;;;;;;7.90;100.00;97112.78;5121856;28;19920;-66
2023/03/31 04:51:09;;;;;;;;;;;;;;;7.68;100.00;97110.38;5124497;28;19924;-66
2023/03/31 04:53:36;;;;;;;;;;;;;;;7.72;100.00;97110.63;5124371;28;20408;-66
2023/03/31 04:56:02;;;;;;;;;;;;;;;7.66;100.00;97114.34;5120859;28;19920;-66
2023/03/31 04:58:29;;;;;;;;;;;;;;;7.65;100.00;97124.19;5120712;28;19950;-66
2023/03/31 05:00:56;;;;;;;;;;;;;;;7.60;100.00;97114.34;5121668;27;19931;-66
2023/03/31 05:03:23;;;;;;;;;;;;;;;7.65;100.00;97113.53;5124237;28;20583;-66
2023/03/31 05:05:49;;;;;;;;;;;;;;;7.82;100.00;97110.66;5122089;28;19934;-66
2023/03/31 05:08:16;;;;;;;;;;;;;;;7.84;100.00;97095.22;5120135;28;20379;-66
2023/03/31 05:10:42;;;;;;;;;;;;;;;7.88;100.00;97101.63;5121149;28;19992;-65
2023/03/31 05:13:09;;;;;;;;;;;;;;;7.85;100.00;97094.19;5105976;28;19947;-65
2023/03/31 05:15:37;;;;;;;;;;;;;;;7.93;100.00;97090.97;5124178;28;19920;-65
2023/03/31 05:18:05;;;;;;;;;;;;;;;7.78;100.00;97081.16;5111962;28;20046;-66
2023/03/31 05:20:31;;;;;;;;;;;;;;;7.72;100.00;97068.13;5094053;28;19924;-66
2023/03/31 05:22:58;;;;;;;;;;;;;;;7.70;100.00;97056.97;5102026;28;20356;-65
2023/03/31 05:25:24;;;;;;;;;;;;;;;7.70;100.00;97054.31;5111876;28;19996;-65
2023/03/31 05:27:50;;;;;;;;;;;;;;;7.69;100.00;97034.09;5111799;28;19931;-65
2023/03/31 05:30:18;;;;;;;;;;;;;;;7.70;100.00;97023.22;5122754;27;19927;-65
2023/03/31 05:32:44;;;;;;;;;;;;;;;7.62;100.00;97010.44;5125866;27;19995;-65
2023/03/31 05:35:12;;;;;;;;;;;;;;;7.61;100.00;96993.69;5123399;28;19930;-66
2023/03/31 05:37:38;;;;;;;;;;;;;;;7.64;100.00;97003.03;5123120;28;19930;-65
2023/03/31 05:40:07;;;;;;;;;;;;;;;7.63;100.00;96998.75;5119951;28;19948;-65
2023/03/31 05:42:33;;;;;;;;;;;;;;;7.74;100.00;96996.88;5119994;28;19991;-65
2023/03/31 05:44:59;;;;;;;;;;;;;;;7.69;100.00;96994.25;5123433;28;19950;-65
2023/03/31 05:47:26;;;;;;;;;;;;;;;7.76;100.00;96998.25;5123782;28;19931;-65
2023/03/31 05:49:52;;;;;;;;;;;;;;;7.72;100.00;96985.72;5121216;28;19983;-65
2023/03/31 05:52:20;;;;;;;;;;;;;;;7.71;100.00;96979.63;5120384;28;19927;-65
2023/03/31 05:54:47;;;;;;;;;;;;;;;7.74;100.00;96975.63;5103508;28;19981;-65
2023/03/31 05:57:13;;;;;;;;;;;;;;;7.80;100.00;96983.31;5123770;28;19930;-65
2023/03/31 05:59:41;;;;;;;;;;;;;;;7.79;100.00;96983.63;5123311;27;19945;-65
2023/03/31 06:02:07;;;;;;;;;;;;;;;7.72;100.00;96967.13;5134868;27;19924;-65
2023/03/31 06:04:33;;;;;;;;;;;;;;;7.75;100.00;96951.47;5119752;28;19962;-65
2023/03/31 06:07:00;;;;;;;;;;;;;;;7.83;100.00;96958.09;5123118;28;19951;-65
2023/03/31 06:09:28;;;;;;;;;;;;;;;7.91;100.00;96961.00;5123464;28;19930;-65
2023/03/31 06:11:55;;;;;;;;;;;;;;;7.95;100.00;96947.97;5120621;28;19924;-65
2023/03/31 06:14:22;;;;;;;;;;;;;;;7.93;100.00;96948.22;5119580;28;19936;-65
2023/03/31 06:16:48;;;;;;;;;;;;;;;7.91;100.00;96938.94;5121306;28;19924;-65
2023/03/31 06:19:15;;;;;;;;;;;;;;;7.92;100.00;96938.66;5123043;28;19923;-65
2023/03/31 06:21:41;;;;;;;;;;;;;;;7.89;100.00;96930.44;5121658;28;19924;-65
2023/03/31 06:24:08;;;;;;;;;;;;;;;7.94;100.00;96927.75;5119294;28;19984;-65
2023/03/31 06:26:36;;;;;;;;;;;;;;;7.91;100.00;96923.00;5101089;28;19923;-66
2023/03/31 06:29:02;;;;;;;;;;;;;;;7.89;100.00;96917.16;5110689;28;19955;-66
2023/03/31 06:31:29;;;;;;;;;;;;;;;7.87;100.00;96912.09;5134205;27;19989;-66
2023/03/31 06:33:55;;;;;;;;;;;;;;;7.87;100.00;96912.09;5119700;28;19919;-66
2023/03/31 06:36:22;;;;;;;;;;;;;;;7.94;100.00;96915.28;5119208;28;19928;-66
2023/03/31 06:38:49;;;;;;;;;;;;;;;7.94;100.00;96911.81;5120866;28;19952;-66
2023/03/31 06:41:17;;;;;;;;;;;;;;;7.89;100.00;96903.88;5122905;28;19942;-66
2023/03/31 06:43:45;;;;;;;;;;;;;;;7.90;100.00;96884.16;5121512;28;19930;-66
2023/03/31 06:46:11;;;;;;;;;;;;;;;7.98;100.00;96891.59;5118625;28;19943;-66
2023/03/31 06:48:38;;;;;;;;;;;;;;;7.97;100.00;96893.47;5118818;28;19991;-66
2023/03/31 06:51:05;;;;;;;;;;;;;;;8.01;100.00;96902.50;5104306;28;19995;-67
2023/03/31 06:53:32;;;;;;;;;;;;;;;8.02;100.00;96897.97;5122247;28;19971;-67
2023/03/31 06:55:59;;;;;;;;;;;;;;;7.99;100.00;96898.50;5119036;28;19923;-66
2023/03/31 06:58:25;;;;;;;;;;;;;;;8.06;100.00;96886.53;5118725;28;20000;-66
2023/03/31 07:00:53;;;;;;;;;;;;;;;8.08;100.00;96870.28;5137350;28;19934;-66
2023/03/31 07:03:21;;;;;;;;;;;;;;;8.11;100.00;96875.06;5122694;28;19935;-66
2023/03/31 07:05:48;;;;;;;;;;;;;;;8.09;100.00;96877.19;5120857;28;19935;-64
2023/03/31 07:08:16;;;;;;;;;;;;;;;8.13;100.00;96873.75;5118812;28;20011;-65
2023/03/31 07:10:45;;;;;;;;;;;;;;;8.16;100.00;96861.75;5119456;28;19924;-65
2023/03/31 07:13:12;;;;;;;;;;;;;;;8.16;100.00;96867.06;5122288;28;19924;-65
2023/03/31 07:15:38;;;;;;;;;;;;;;;8.18;100.00;96858.81;5121743;28;19930;-65
2023/03/31 07:18:06;;;;;;;;;;;;;;;8.19;100.00;96865.72;5118437;28;19924;-65
2023/03/31 07:20:33;;;;;;;;;;;;;;;8.20;100.00;96857.47;5118580;28;19924;-66
2023/03/31 07:22:59;;;;;;;;;;;;;;;8.20;100.00;96862.78;5121664;28;19924;-65
2023/03/31 07:25:25;;;;;;;;;;;;;;;8.21;100.00;96863.59;5121864;28;19975;-65
2023/03/31 07:27:52;;;;;;;;;;;;;;;8.26;100.00;96877.69;5119464;28;20002;-65
2023/03/31 07:30:19;;;;;;;;;;;;;;;8.39;100.00;96882.41;5129534;28;19983;-66
2023/03/31 07:32:46;;;;;;;;;;;;;;;8.41;100.00;96884.81;5107936;28;19928;-64
2023/03/31 07:35:14;;;;;;;;;;;;;;;8.47;100.00;96889.03;5125790;28;19931;-65
2023/03/31 07:37:41;;;;;;;;;;;;;;;8.43;100.00;96894.09;5125461;28;19951;-66
2023/03/31 07:40:08;;;;;;;;;;;;;;;8.51;100.00;96895.41;5122565;28;20584;-66
2023/03/31 07:42:34;;;;;;;;;;;;;;;8.61;100.00;96912.09;5122253;28;19931;-66
2023/03/31 07:45:01;;;;;;;;;;;;;;;8.66;100.00;96912.06;5125767;28;19924;-66
2023/03/31 07:47:28;;;;;;;;;;;;;;;8.59;100.00;96903.63;5125575;28;19928;-66
2023/03/31 07:49:54;;;;;;;;;;;;;;;8.48;100.00;96891.41;5123223;28;19928;-66
2023/03/31 07:52:22;;;;;;;;;;;;;;;8.49;100.00;96898.34;5122007;28;19931;-66
2023/03/31 07:54:48;;;;;;;;;;;;;;;8.62;100.00;96903.06;5123863;28;19924;-66
2023/03/31 07:57:18;;;;;;;;;;;;;;;8.70;100.00;96904.34;5125674;28;19923;-67
2023/03/31 07:59:44;;;;;;;;;;;;;;;8.54;100.00;96910.84;5107570;27;20023;-66
2023/03/31 08:02:12;;;;;;;;;;;;;;;8.60;100.00;96910.50;5135876;27;19963;-66
2023/03/31 08:04:40;;;;;;;;;;;;;;;8.65;100.00;96912.34;5121963;28;19935;-66
2023/03/31 08:07:07;;;;;;;;;;;;;;;8.60;100.00;96913.16;5125357;28;19920;-66
2023/03/31 08:09:35;;;;;;;;;;;;;;;8.59;100.00;96914.25;5125212;28;19930;-66
2023/03/31 08:12:01;;;;;;;;;;;;;;;8.68;100.00;96901.97;5121818;28;19947;-66
2023/03/31 08:14:27;;;;;;;;;;;;;;;8.74;100.00;96899.25;5103648;28;20106;-66
2023/03/31 08:16:54;;;;;;;;;;;;;;;8.68;100.00;96899.31;5123956;28;20011;-66
2023/03/31 08:19:21;;;;;;;;;;;;;;;8.57;100.00;96895.09;5125055;28;19928;-66
2023/03/31 08:21:47;;;;;;;;;;;;;;;8.57;100.00;96883.66;5123443;28;19920;-66
2023/03/31 08:24:13;;;;;;;;;;;;;;;8.57;100.00;96879.13;5121477;28;20610;-66
2023/03/31 08:26:41;;;;;;;;;;;;;;;8.59;100.00;96866.34;5121604;28;19931;-65
2023/03/31 08:29:08;;;;;;;;;;;;;;;8.52;100.00;96857.88;5124835;28;19953;-66
2023/03/31 08:31:34;;;;;;;;;;;;;;;8.50;100.00;96848.59;5141086;27;20554;-65
2023/03/31 08:34:01;;;;;;;;;;;;;;;8.52;100.00;96846.44;5121128;28;19924;-66
2023/03/31 08:36:28;;;;;;;;;;;;;;;8.48;100.00;96826.78;5102964;28;20000;-66
2023/03/31 08:38:54;;;;;;;;;;;;;;;8.45;100.00;96822.78;5105536;28;19923;-66
2023/03/31 08:41:33;;;;;;;;;;;;;;;8.45;100.00;96812.16;5124614;28;20041;-66
2023/03/31 08:44:03;;;;;;;;;;;;;;;8.42;100.00;96775.44;5121226;28;19980;-66
2023/03/31 08:46:32;;;;;;;;;;;;;;;8.43;100.00;96768.28;5120894;28;19924;-66
2023/03/31 08:49:00;;;;;;;;;;;;;;;8.43;100.00;96747.00;5124321;28;19994;-65
2023/03/31 08:51:28;;;;;;;;;;;;;;;8.36;100.00;96749.97;5124108;28;19956;-66
2023/03/31 08:53:57;;;;;;;;;;;;;;;8.43;100.00;96755.78;5121243;28;19932;-66
2023/03/31 08:56:26;;;;;;;;;;;;;;;8.41;100.00;96751.81;5120213;28;19952;-66
2023/03/31 08:58:54;;;;;;;;;;;;;;;8.43;100.00;96749.66;5122285;28;19935;-66
2023/03/31 09:01:26;;;;;;;;;;;;;;;8.49;100.00;96753.84;5139884;27;19920;-66
2023/03/31 09:04:06;;;;;;;;;;;;;;;8.48;100.00;96766.38;5121029;28;20493;-65
2023/03/31 09:06:36;;;;;;;;;;;;;;;8.57;100.00;96783.31;5119921;28;19995;-66
2023/03/31 09:09:07;;;;;;;;;;;;;;;8.72;100.00;96793.09;5112138;28;19935;-66
2023/03/31 09:11:36;;;;;;;;;;;;;;;8.68;100.00;96811.47;5111993;28;19928;-66
2023/03/31 09:14:05;;;;;;;;;;;;;;;8.75;100.00;96836.97;5102371;28;20407;-66
2023/03/31 09:16:35;;;;;;;;;;;;;;;8.70;100.00;96826.38;5120457;28;19946;-66
2023/03/31 09:19:02;;;;;;;;;;;;;;;8.71;100.00;96867.88;5111904;28;19947;-66
2023/03/31 09:21:31;;;;;;;;;;;;;;;8.86;100.00;96870.44;5111961;28;19966;-66
2023/03/31 09:24:01;;;;;;;;;;;;;;;8.95;100.00;96861.56;5111971;28;19956;-66
2023/03/31 09:26:34;;;;;;;;;;;;;;;9.01;100.00;96872.97;5111800;28;19924;-66
2023/03/31 09:29:02;;;;;;;;;;;;;;;8.93;100.00;96807.81;5111514;28;19970;-66
2023/03/31 09:31:28;;;;;;;;;;;;;;;8.91;100.00;96782.56;5135309;27;20018;-66
2023/03/31 09:34:00;;;;;;;;;;;;;;;8.99;100.00;96787.25;5120808;28;19951;-66
2023/03/31 09:36:26;;;;;;;;;;;;;;;9.04;100.00;96768.56;5120022;28;20000;-65
2023/03/31 09:38:52;;;;;;;;;;;;;;;8.92;100.00;96757.50;5122237;28;19924;-65
2023/03/31 09:41:20;;;;;;;;;;;;;;;8.86;100.00;96743.44;5123293;28;20003;-65
2023/03/31 09:43:48;;;;;;;;;;;;;;;8.88;100.00;96732.53;5121875;28;19983;-66
2023/03/31 09:46:19;;;;;;;;;;;;;;;8.85;100.00;96722.44;5119917;28;19946;-66
2023/03/31 09:48:50;;;;;;;;;;;;;;;8.94;100.00;96718.91;5121033;28;19924;-66
2023/03/31 09:51:20;;;;;;;;;;;;;;;8.96;100.00;96722.06;5123059;28;19923;-66
2023/03/31 09:53:48;;;;;;;;;;;;;;;8.99;100.00;96747.31;5121625;28;19924;-66
2023/03/31 09:56:31;;;;;;;;;;;;;;;9.06;100.00;96729.16;5119033;28;19947;-66
2023/03/31 09:59:01;;;;;;;;;;;;;;;9.14;100.00;96729.34;5122384;28;19952;-66
2023/03/31 10:01:28;;;;;;;;;;;;;;;9.21;100.00;96721.81;5139743;27;19930;-65
2023/03/31 10:03:55;;;;;;;;;;;;;;;9.32;100.00;96722.47;5120739;28;19923;-66
2023/03/31 10:06:24;;;;;;;;;;;;;;;9.43;100.00;96720.50;5119924;28;19930;-66
2023/03/31 10:08:51;;;;;;;;;;;;;;;9.56;100.00;96717.94;5121239;28;19935;-66
2023/03/31 10:11:18;;;;;;;;;;;;;;;9.69;100.00;96716.44;5123289;28;20006;-66
2023/03/31 10:13:47;;;;;;;;;;;;;;;9.76;100.00;96709.69;5121901;28;19983;-66
2023/03/31 10:16:14;;;;;;;;;;;;;;;9.90;100.00;96709.00;5119362;28;19924;-66
2023/03/31 10:18:42;;;;;;;;;;;;;;;9.91;100.00;96703.34;5101809;28;20010;-66
2023/03/31 10:21:18;;;;;;;;;;;;;;;9.97;100.00;96704.06;5104472;28;19973;-65
2023/03/31 10:23:47;;;;;;;;;;;;;;;10.03;100.00;96692.25;5121497;28;19935;-66
2023/03/31 10:26:16;;;;;;;;;;;;;;;10.10;100.00;96693.50;5119129;28;20370;-66
2023/03/31 10:28:43;;;;;;;;;;;;;;;10.34;100.00;96696.09;5119948;28;19924;-66
2023/03/31 10:31:10;;;;;;;;;;;;;;;10.54;100.00;96682.44;5139301;27;19940;-66
2023/03/31 10:33:40;;;;;;;;;;;;;;;10.76;100.00;96679.94;5104398;28;19946;-65
2023/03/31 10:36:08;;;;;;;;;;;;;;;11.06;100.00;96677.78;5119042;28;19920;-66
2023/03/31 10:38:36;;;;;;;;;;;;;;;11.00;100.00;96677.09;5118984;28;19931;-65
2023/03/31 10:41:04;;;;;;;;;;;;;;;11.12;100.00;96672.06;5118994;28;20356;-66
2023/03/31 10:43:35;;;;;;;;;;;;;;;11.18;100.00;96665.53;5119048;28;19967;-66
2023/03/31 10:46:03;;;;;;;;;;;;;;;11.63;100.00;96638.97;5122203;28;19931;-65
2023/03/31 10:48:30;;;;;;;;;;;;;;;11.63;100.00;96623.72;5122293;28;19923;-65
2023/03/31 10:50:59;;;;;;;;;;;;;;;10.84;100.00;96625.03;5119436;28;20013;-66
2023/03/31 10:53:25;;;;;;;;;;;;;;;10.81;100.00;96618.41;5118631;28;19973;-64
2023/03/31 10:56:01;;;;;;;;;;;;;;;11.12;100.00;96620.50;5120812;28;19963;-66
2023/03/31 10:58:36;;;;;;;;;;;;;;;10.97;100.00;96610.91;5122447;28;19967;-66
2023/03/31 11:01:08;;;;;;;;;;;;;;;11.06;100.00;96602.97;5130604;28;19924;-66
2023/03/31 11:03:45;;;;;;;;;;;;;;;11.05;100.00;96610.19;5122352;28;19924;-66
2023/03/31 11:06:16;;;;;;;;;;;;;;;11.16;100.00;96608.94;5117551;28;19958;-65
2023/03/31 11:08:49;;;;;;;;;;;;;;;11.02;100.00;96605.44;5123335;28;19931;-65
2023/03/31 11:11:31;;;;;;;;;;;;;;;11.06;100.00;96602.97;5126636;28;19919;-65
2023/03/31 11:14:01;;;;;;;;;;;;;;;11.03;100.00;96577.66;5121924;28;19924;-65
2023/03/31 11:16:31;;;;;;;;;;;;;;;11.23;100.00;96590.59;5122939;28;19924;-65
2023/03/31 11:19:08;;;;;;;;;;;;;;;11.09;100.00;96592.50;5107681;28;19927;-66
2023/03/31 11:21:40;;;;;;;;;;;;;;;11.10;100.00;96583.41;5126191;28;20378;-65
2023/03/31 11:24:15;;;;;;;;;;;;;;;11.21;100.00;96562.59;5114130;28;20319;-66
2023/03/31 11:26:47;;;;;;;;;;;;;;;11.31;100.00;96563.19;5113975;28;19928;-66
2023/03/31 11:29:22;;;;;;;;;;;;;;;11.47;100.00;96554.81;5114023;28;19991;-65
2023/03/31 11:31:52;;;;;;;;;;;;;;;11.61;100.00;96539.53;5138856;27;19920;-65
2023/03/31 11:34:29;;;;;;;;;;;;;;;11.84;100.00;96538.50;5122353;28;19924;-66
2023/03/31 11:37:10;;;;;;;;;;;;;;;12.04;100.00;96545.25;5124931;28;20115;-66
2023/03/31 11:39:43;;;;;;;;;;;;;;;11.74;100.00;96531.50;5125679;28;19950;-66
2023/03/31 11:42:13;;;;;;;;;;;;;;;12.21;100.00;96526.59;5114055;28;19983;-65
2023/03/31 11:44:43;;;;;;;;;;;;;;;12.57;100.00;96524.56;5113615;28;19924;-65
2023/03/31 11:47:13;;;;;;;;;;;;;;;12.57;100.00;96519.22;5113805;28;19925;-66
2023/03/31 11:49:41;;;;;;;;;;;;;;;12.40;100.00;96519.94;5113737;28;19968;-66
2023/03/31 11:52:09;;;;;;;;;;;;;;;12.52;100.00;96513.22;5113692;28;19924;-66
2023/03/31 11:54:38;;;;;;;;;;;;;;;12.45;100.00;96508.31;5113601;28;19924;-66
2023/03/31 11:57:10;;;;;;;;;;;;;;;12.74;100.00;96516.63;5121990;28;19947;-66
2023/03/31 11:59:37;;;;;;;;;;;;;;;12.53;100.00;96502.22;5121757;28;19940;-66
2023/03/31 12:02:10;;;;;;;;;;;;;;;12.34;100.00;96488.28;5103874;28;20019;-67
2023/03/31 12:04:38;;;;;;;;;;;;;;;12.24;100.00;96477.81;5121494;28;20011;-66
2023/03/31 12:07:15;;;;;;;;;;;;;;;12.31;100.00;96464.78;5121749;28;19924;-66
2023/03/31 12:09:48;;;;;;;;;;;;;;;12.39;100.00;96461.34;5122631;28;19985;-66
2023/03/31 12:12:17;;;;;;;;;;;;;;;12.49;100.00;96438.88;5125309;28;19983;-66
2023/03/31 12:14:47;;;;;;;;;;;;;;;12.35;100.00;96434.41;5124337;28;19991;-66
2023/03/31 12:17:17;;;;;;;;;;;;;;;12.58;100.00;96435.13;5121859;28;19924;-66
2023/03/31 12:19:47;;;;;;;;;;;;;;;12.59;100.00;96419.84;5122756;28;19935;-67
2023/03/31 12:22:16;;;;;;;;;;;;;;;12.60;100.00;96427.56;5107491;28;19947;-67
2023/03/31 12:24:42;;;;;;;;;;;;;;;12.53;100.00;96421.88;5124469;28;19935;-67
2023/03/31 12:27:13;;;;;;;;;;;;;;;12.49;100.00;96412.88;5121932;28;19924;-67
2023/03/31 12:29:41;;;;;;;;;;;;;;;12.59;100.00;96393.84;5122204;27;19956;-67
2023/03/31 12:32:10;;;;;;;;;;;;;;;12.66;100.00;96386.13;5137542;27;19950;-66
2023/03/31 12:34:41;;;;;;;;;;;;;;;12.97;100.00;96389.47;5121612;28;19924;-66
2023/03/31 12:37:22;;;;;;;;;;;;;;;12.82;100.00;96381.91;5113327;28;19931;-67
2023/03/31 12:39:55;;;;;;;;;;;;;;;12.87;100.00;96376.38;5112932;28;19959;-66
2023/03/31 12:42:35;;;;;;;;;;;;;;;12.80;100.00;96351.19;5112830;28;19920;-66
2023/03/31 12:45:06;;;;;;;;;;;;;;;12.96;100.00;96337.00;5112441;28;20545;-66
2023/03/31 12:47:40;;;;;;;;;;;;;;;12.97;100.00;96310.97;5112825;28;19923;-66
2023/03/31 12:50:16;;;;;;;;;;;;;;;13.01;100.00;96314.63;5121294;28;19924;-66
2023/03/31 12:52:46;;;;;;;;;;;;;;;13.21;100.00;96323.94;5122294;28;20049;-67
2023/03/31 12:55:21;;;;;;;;;;;;;;;13.37;100.00;96354.47;5125184;28;19959;-67
2023/03/31 12:57:47;;;;;;;;;;;;;;;13.19;100.00;96385.09;5123561;28;19926;-66